Time;durP1;ratioP1;P1;durP2;ratioP2;P2;SDS_P1;SDS_P2;PMS_P1;PMS_P2;Temp;Humidity;BMP_temperature;BMP_pressure;BME280_temperature;BME280_humidity;BME280_pressure;Samples;Min_cycle;Max_cycle;Signal;HPM_P1;HPM_P2
2023/04/06 00:01:20;;;;;;;5.97;3.17;;;;;;;;;;4975029;28;20107;-89
2023/04/06 00:03:48;;;;;;;4.05;2.90;;;;;;;;;;4964970;28;20513;-85
2023/04/06 00:06:16;;;;;;;3.60;2.90;;;;;;;;;;4959109;29;20054;-85
2023/04/06 00:08:46;;;;;;;3.67;2.60;;;;;;;;;;4957779;28;20082;-85
2023/04/06 00:11:16;;;;;;;3.75;2.90;;;;;;;;;;4953688;29;20094;-85
2023/04/06 00:13:44;;;;;;;3.47;2.75;;;;;;;;;;4939685;29;20473;-85
2023/04/06 00:16:11;;;;;;;4.53;2.70;;;;;;;;;;4938047;29;20067;-85
2023/04/06 00:18:39;;;;;;;3.50;2.70;;;;;;;;;;4940685;29;20048;-85
2023/04/06 00:21:14;;;;;;;4.07;2.97;;;;;;;;;;4953733;28;20040;-84
2023/04/06 00:23:42;;;;;;;4.57;2.97;;;;;;;;;;4957296;28;20039;-85
2023/04/06 00:26:12;;;;;;;3.80;3.40;;;;;;;;;;4948877;29;20070;-85
2023/04/06 00:28:45;;;;;;;3.40;2.85;;;;;;;;;;4932517;29;20043;-86
2023/04/06 00:34:10;;;;;;;7.05;3.28;;;;;;;;;;4961451;28;20441;-76
2023/04/06 00:36:38;;;;;;;3.45;3.15;;;;;;;;;;4951937;28;20047;-76
2023/04/06 00:39:05;;;;;;;2.78;2.55;;;;;;;;;;4953343;28;20050;-76
2023/04/06 00:41:33;;;;;;;3.65;2.75;;;;;;;;;;4954650;28;20051;-76
2023/04/06 00:44:00;;;;;;;3.22;2.92;;;;;;;;;;4933806;29;20332;-77
2023/04/06 00:46:28;;;;;;;2.90;2.60;;;;;;;;;;4935479;28;20070;-78
2023/04/06 00:48:57;;;;;;;4.20;2.95;;;;;;;;;;4935160;29;20051;-77
2023/04/06 00:51:25;;;;;;;3.97;3.05;;;;;;;;;;4930887;29;20521;-76
2023/04/06 00:53:53;;;;;;;4.07;3.00;;;;;;;;;;4946069;28;20053;-76
2023/04/06 00:56:21;;;;;;;3.08;2.70;;;;;;;;;;4934187;28;20480;-77
2023/04/06 00:58:51;;;;;;;4.00;3.40;;;;;;;;;;4935705;29;20058;-76
2023/04/06 01:01:19;;;;;;;3.22;2.85;;;;;;;;;;4939285;28;20039;-76
2023/04/06 01:03:49;;;;;;;3.70;3.38;;;;;;;;;;4951648;28;20133;-77
2023/04/06 01:06:19;;;;;;;3.15;2.72;;;;;;;;;;4936188;28;20102;-78
2023/04/06 01:08:55;;;;;;;3.22;2.70;;;;;;;;;;4930781;29;20047;-77
2023/04/06 01:11:26;;;;;;;2.97;2.67;;;;;;;;;;4934499;29;20061;-77
2023/04/06 01:13:53;;;;;;;3.08;2.78;;;;;;;;;;4928784;29;20044;-77
2023/04/06 01:16:27;;;;;;;2.85;2.65;;;;;;;;;;4931523;29;20043;-77
2023/04/06 01:19:13;;;;;;;3.20;2.88;;;;;;;;;;4951076;28;20394;-76
2023/04/06 01:21:52;;;;;;;2.88;2.67;;;;;;;;;;4931680;29;20057;-77
2023/04/06 01:24:26;;;;;;;6.50;3.30;;;;;;;;;;4954032;28;20046;-78
2023/04/06 01:27:03;;;;;;;3.17;2.85;;;;;;;;;;4937627;29;20050;-78
2023/04/06 01:29:43;;;;;;;3.78;3.33;;;;;;;;;;4929984;29;20409;-77
2023/04/06 01:32:15;;;;;;;;;;;;;;;;;;4936434;28;20047;-77
2023/04/06 01:34:48;;;;;;;12.98;11.98;;;;;;;;;;4931696;29;19934;-77
2023/04/06 01:37:16;;;;;;;4.18;2.97;;;;;;;;;;4951202;28;20133;-77
2023/04/06 01:39:45;;;;;;;2.72;2.53;;;;;;;;;;4954410;28;20051;-77
2023/04/06 01:42:20;;;;;;;5.50;3.50;;;;;;;;;;4932575;28;20054;-77
2023/04/06 01:44:48;;;;;;;2.83;2.60;;;;;;;;;;4935024;28;20051;-76
2023/04/06 01:47:16;;;;;;;6.68;3.20;;;;;;;;;;4932201;28;20513;-77
2023/04/06 01:49:44;;;;;;;3.25;2.95;;;;;;;;;;4931896;29;20051;-76
2023/04/06 01:52:12;;;;;;;2.60;2.45;;;;;;;;;;4936750;29;20047;-77
2023/04/06 01:54:42;;;;;;;2.67;2.30;;;;;;;;;;4930371;29;20051;-76
2023/04/06 01:57:36;;;;;;;4.20;3.33;;;;;;;;;;4942622;29;20091;-77
2023/04/06 02:00:24;;;;;;;6.45;3.38;;;;;;;;;;4954868;28;20055;-77
2023/04/06 02:02:53;;;;;;;4.60;3.50;;;;;;;;;;4930359;29;20049;-78
2023/04/06 02:05:25;;;;;;;3.92;3.53;;;;;;;;;;4936658;28;20049;-77
2023/04/06 02:07:54;;;;;;;3.35;2.60;;;;;;;;;;4930960;29;20054;-77
2023/04/06 02:10:30;;;;;;;11.32;6.18;;;;;;;;;;4934980;28;20061;-79
2023/04/06 02:13:02;;;;;;;15.25;7.25;;;;;;;;;;4937558;29;20043;-78
2023/04/06 02:15:30;;;;;;;15.40;6.20;;;;;;;;;;4929414;29;20051;-78
2023/04/06 02:17:59;;;;;;;10.90;5.32;;;;;;;;;;4934142;29;20429;-77
2023/04/06 02:20:27;;;;;;;12.55;5.97;;;;;;;;;;4933498;28;20094;-77
2023/04/06 02:22:57;;;;;;;14.27;6.10;;;;;;;;;;4930357;29;20476;-78
2023/04/06 02:25:24;;;;;;;11.88;5.07;;;;;;;;;;4951590;28;20043;-77
2023/04/06 02:27:52;;;;;;;13.00;6.30;;;;;;;;;;4933869;28;20047;-77
2023/04/06 02:30:19;;;;;;;17.02;6.57;;;;;;;;;;4935535;28;20074;-77
2023/04/06 02:32:48;;;;;;;11.82;6.00;;;;;;;;;;4935145;28;20046;-77
2023/04/06 02:35:16;;;;;;;10.40;4.95;;;;;;;;;;4952345;28;20059;-79
2023/04/06 02:37:44;;;;;;;12.50;5.18;;;;;;;;;;4937304;28;20508;-77
2023/04/06 02:40:11;;;;;;;10.32;4.32;;;;;;;;;;4930325;28;20078;-78
2023/04/06 02:42:39;;;;;;;7.25;5.15;;;;;;;;;;4948151;28;20201;-77
2023/04/06 02:45:07;;;;;;;7.90;4.53;;;;;;;;;;4934151;28;20802;-77
2023/04/06 02:47:40;;;;;;;9.48;5.30;;;;;;;;;;4943339;28;20047;-77
2023/04/06 02:50:08;;;;;;;9.48;4.28;;;;;;;;;;4941343;28;20070;-77
2023/04/06 02:52:42;;;;;;;6.97;4.30;;;;;;;;;;4942733;28;20500;-78
2023/04/06 02:55:12;;;;;;;9.27;4.70;;;;;;;;;;4934604;29;20040;-78
2023/04/06 02:57:40;;;;;;;6.22;3.70;;;;;;;;;;4939119;28;20605;-78
2023/04/06 03:00:08;;;;;;;7.15;4.22;;;;;;;;;;4931931;28;20047;-77
2023/04/06 03:02:39;;;;;;;8.27;3.90;;;;;;;;;;4938984;28;20051;-77
2023/04/06 03:05:13;;;;;;;7.80;4.18;;;;;;;;;;4933649;29;20469;-77
2023/04/06 03:07:43;;;;;;;11.05;4.65;;;;;;;;;;4934465;29;20040;-77
2023/04/06 03:10:18;;;;;;;4.13;3.15;;;;;;;;;;4932195;29;20417;-78
2023/04/06 03:12:47;;;;;;;66.75;50.33;;;;;;;;;;4955632;28;20055;-77
2023/04/06 03:15:35;;;;;;;6.18;3.45;;;;;;;;;;4941500;28;20465;-77
2023/04/06 03:18:12;;;;;;;8.70;3.90;;;;;;;;;;4937846;29;20061;-77
2023/04/06 03:20:44;;;;;;;6.30;3.92;;;;;;;;;;4932230;29;20058;-77
2023/04/06 03:23:16;;;;;;;7.90;3.90;;;;;;;;;;4933569;29;20509;-77
2023/04/06 03:25:45;;;;;;;5.32;3.70;;;;;;;;;;4933070;29;20053;-77
2023/04/06 03:28:19;;;;;;;7.32;3.55;;;;;;;;;;4933602;29;20059;-77
2023/04/06 03:31:12;;;;;;;6.22;2.95;;;;;;;;;;4964953;28;20047;-78
2023/04/06 03:33:54;;;;;;;4.30;3.63;;;;;;;;;;4953257;28;20066;-78
2023/04/06 03:36:31;;;;;;;4.90;3.45;;;;;;;;;;4946691;28;20516;-77
2023/04/06 03:39:00;;;;;;;6.38;4.05;;;;;;;;;;4932582;29;20055;-77
2023/04/06 03:41:27;;;;;;;3.67;3.20;;;;;;;;;;4941186;28;20047;-78
2023/04/06 03:44:21;;;;;;;6.53;3.85;;;;;;;;;;4949419;28;20170;-78
2023/04/06 03:46:48;;;;;;;7.43;6.78;;;;;;;;;;4941878;28;20398;-77
2023/04/06 03:49:16;;;;;;;3.50;3.20;;;;;;;;;;4937324;28;20058;-77
2023/04/06 03:51:47;;;;;;;4.20;3.55;;;;;;;;;;4937189;29;20055;-76
2023/04/06 03:54:15;;;;;;;5.65;3.95;;;;;;;;;;4937930;28;20126;-77
2023/04/06 03:56:42;;;;;;;6.18;4.07;;;;;;;;;;4933938;29;20198;-77
2023/04/06 03:59:10;;;;;;;13.90;12.75;;;;;;;;;;4936530;28;20074;-77
2023/04/06 04:01:39;;;;;;;17.02;14.30;;;;;;;;;;4932972;29;20467;-77
2023/04/06 04:04:06;;;;;;;4.63;3.42;;;;;;;;;;4949106;28;20051;-77
2023/04/06 04:06:36;;;;;;;5.07;4.10;;;;;;;;;;4932647;29;20143;-77
2023/04/06 04:09:03;;;;;;;4.50;3.35;;;;;;;;;;4933240;29;20055;-77
2023/04/06 04:11:31;;;;;;;4.05;3.30;;;;;;;;;;4951970;28;20053;-77
2023/04/06 04:13:59;;;;;;;5.20;4.30;;;;;;;;;;4956138;28;20050;-76
2023/04/06 04:16:27;;;;;;;4.35;3.53;;;;;;;;;;4933171;29;20075;-77
2023/04/06 04:18:54;;;;;;;48.70;32.75;;;;;;;;;;4955385;28;20054;-78
2023/04/06 04:21:23;;;;;;;9.35;8.57;;;;;;;;;;4938229;28;20560;-77
2023/04/06 04:23:50;;;;;;;4.32;3.45;;;;;;;;;;4928112;29;20520;-77
2023/04/06 04:26:18;;;;;;;5.03;3.70;;;;;;;;;;4952463;28;20075;-77
2023/04/06 04:28:46;;;;;;;8.32;3.60;;;;;;;;;;4926372;29;20075;-78
2023/04/06 04:31:17;;;;;;;5.22;3.80;;;;;;;;;;4928556;29;20047;-80
2023/04/06 04:33:45;;;;;;;5.68;4.30;;;;;;;;;;4929630;29;20047;-78
2023/04/06 04:36:18;;;;;;;4.47;3.42;;;;;;;;;;4931353;28;20051;-78
2023/04/06 04:38:46;;;;;;;5.88;3.13;;;;;;;;;;4935603;29;20054;-78
2023/04/06 04:41:14;;;;;;;3.80;3.22;;;;;;;;;;4933868;28;20072;-77
2023/04/06 04:43:43;;;;;;;5.38;3.78;;;;;;;;;;4928237;29;20039;-77
2023/04/06 04:46:13;;;;;;;5.43;4.55;;;;;;;;;;4932017;28;20047;-78
2023/04/06 04:48:43;;;;;;;6.65;4.75;;;;;;;;;;4927654;29;20529;-77
2023/04/06 04:51:10;;;;;;;5.57;4.90;;;;;;;;;;4931237;28;20125;-78
2023/04/06 04:53:55;;;;;;;5.97;4.85;;;;;;;;;;4929336;29;20058;-79
2023/04/06 04:56:30;;;;;;;5.13;3.92;;;;;;;;;;4929329;29;20051;-81
2023/04/06 04:59:06;;;;;;;7.68;3.90;;;;;;;;;;4925541;28;20406;-78
2023/04/06 05:01:37;;;;;;;8.15;3.83;;;;;;;;;;4932165;28;20469;-78
2023/04/06 05:04:23;;;;;;;4.68;4.20;;;;;;;;;;4951414;28;20162;-78
2023/04/06 05:07:07;;;;;;;5.38;4.40;;;;;;;;;;4933320;29;20138;-78
2023/04/06 05:09:37;;;;;;;5.35;3.85;;;;;;;;;;4926761;29;20047;-78
2023/04/06 05:12:05;;;;;;;5.15;4.13;;;;;;;;;;4933484;28;20053;-78
2023/04/06 05:14:39;;;;;;;4.40;3.67;;;;;;;;;;4929989;29;20537;-81
2023/04/06 05:17:12;;;;;;;5.90;4.43;;;;;;;;;;4927290;29;20052;-78
2023/04/06 05:19:40;;;;;;;7.10;4.40;;;;;;;;;;4930752;29;20047;-78
2023/04/06 05:22:08;;;;;;;5.20;4.43;;;;;;;;;;4920451;28;20042;-79
2023/04/06 05:24:39;;;;;;;7.50;5.32;;;;;;;;;;4930591;28;20568;-80
2023/04/06 05:27:08;;;;;;;4.45;3.97;;;;;;;;;;4930199;29;20505;-79
2023/04/06 05:29:35;;;;;;;7.45;5.45;;;;;;;;;;4935236;29;20479;-81
2023/04/06 05:32:03;;;;;;;4.90;4.43;;;;;;;;;;4937751;29;20506;-79
2023/04/06 05:34:31;;;;;;;9.88;5.05;;;;;;;;;;4926133;29;20047;-81
2023/04/06 05:37:03;;;;;;;6.47;5.37;;;;;;;;;;4927386;29;20043;-78
2023/04/06 05:39:30;;;;;;;7.32;5.57;;;;;;;;;;4924141;29;20051;-79
2023/04/06 05:42:02;;;;;;;7.68;5.22;;;;;;;;;;4932602;29;20046;-78
2023/04/06 05:44:38;;;;;;;6.38;5.53;;;;;;;;;;4931908;29;20585;-81
2023/04/06 05:47:13;;;;;;;8.65;6.25;;;;;;;;;;4931849;29;20502;-78
2023/04/06 05:49:43;;;;;;;13.20;7.55;;;;;;;;;;4926061;29;20055;-78
2023/04/06 05:52:16;;;;;;;11.68;7.25;;;;;;;;;;4925737;29;20051;-79
2023/04/06 05:54:46;;;;;;;13.07;8.07;;;;;;;;;;4944369;29;20069;-80
2023/04/06 05:57:14;;;;;;;11.55;7.53;;;;;;;;;;4920217;28;20047;-77
2023/04/06 05:59:41;;;;;;;10.13;7.13;;;;;;;;;;4925723;29;20059;-78
2023/04/06 06:02:10;;;;;;;11.15;9.77;;;;;;;;;;4925107;28;20443;-78
2023/04/06 06:04:42;;;;;;;10.93;6.68;;;;;;;;;;4920778;29;20074;-77
2023/04/06 06:07:09;;;;;;;9.20;5.45;;;;;;;;;;4932630;28;20048;-78
2023/04/06 06:09:48;;;;;;;12.40;11.00;;;;;;;;;;4929940;29;20132;-77
2023/04/06 06:12:21;;;;;;;11.23;7.63;;;;;;;;;;4929598;28;20051;-78
2023/04/06 06:14:50;;;;;;;7.28;5.05;;;;;;;;;;4929500;29;20047;-78
2023/04/06 06:17:18;;;;;;;7.38;4.90;;;;;;;;;;4926129;29;20043;-78
2023/04/06 06:19:47;;;;;;;6.13;4.97;;;;;;;;;;4929226;29;20114;-77
2023/04/06 06:22:15;;;;;;;7.05;4.68;;;;;;;;;;4913681;29;20498;-81
2023/04/06 06:24:46;;;;;;;13.90;5.55;;;;;;;;;;4907852;29;20043;-81
2023/04/06 06:27:15;;;;;;;6.78;5.55;;;;;;;;;;4926252;28;20473;-78
2023/04/06 06:29:42;;;;;;;8.70;7.88;;;;;;;;;;4969207;23;20057;-79
2023/04/06 06:32:10;;;;;;;7.90;4.65;;;;;;;;;;4938029;29;20495;-82
2023/04/06 06:34:39;;;;;;;9.43;4.90;;;;;;;;;;4915093;29;20122;-80
2023/04/06 06:37:08;;;;;;;5.03;4.60;;;;;;;;;;4920455;29;20040;-81
2023/04/06 06:39:37;;;;;;;7.22;4.80;;;;;;;;;;4922241;28;20484;-81
2023/04/06 06:42:05;;;;;;;7.18;4.50;;;;;;;;;;4930371;29;20043;-82
2023/04/06 06:45:11;;;;;;;8.68;5.07;;;;;;;;;;4870322;29;20045;-80
2023/04/06 06:47:40;;;;;;;6.25;4.93;;;;;;;;;;4874048;29;20126;-80
2023/04/06 06:50:11;;;;;;;5.03;4.00;;;;;;;;;;4893369;29;20054;-78
2023/04/06 06:52:38;;;;;;;6.60;5.13;;;;;;;;;;4929257;29;20071;-81
2023/04/06 06:55:06;;;;;;;4.25;3.85;;;;;;;;;;4926341;29;20496;-80
2023/04/06 06:57:35;;;;;;;5.32;4.15;;;;;;;;;;4929263;29;20055;-80
2023/04/06 07:00:05;;;;;;;5.50;4.43;;;;;;;;;;4941827;29;20047;-82
2023/04/06 07:02:35;;;;;;;22.77;18.30;;;;;;;;;;4926098;29;20055;-82
2023/04/06 07:05:03;;;;;;;6.78;4.40;;;;;;;;;;4941738;29;20130;-79
2023/04/06 07:07:42;;;;;;;9.73;4.82;;;;;;;;;;4929352;29;20061;-80
2023/04/06 07:10:10;;;;;;;4.82;4.43;;;;;;;;;;4924659;29;20154;-82
2023/04/06 07:12:39;;;;;;;5.70;4.30;;;;;;;;;;4948982;29;20078;-80
2023/04/06 07:15:07;;;;;;;10.77;4.90;;;;;;;;;;4928364;29;20406;-81
2023/04/06 07:17:34;;;;;;;5.63;4.43;;;;;;;;;;4929864;29;20062;-81
2023/04/06 07:20:02;;;;;;;5.72;4.30;;;;;;;;;;4947157;29;20047;-81
2023/04/06 07:22:31;;;;;;;6.10;4.57;;;;;;;;;;4931224;29;20043;-81
2023/04/06 07:24:58;;;;;;;5.00;4.03;;;;;;;;;;4948969;29;20039;-81
2023/04/06 07:27:26;;;;;;;6.15;4.03;;;;;;;;;;4931489;29;20118;-81
2023/04/06 07:29:54;;;;;;;5.10;4.60;;;;;;;;;;4917859;29;20059;-80
2023/04/06 07:32:22;;;;;;;16.52;15.25;;;;;;;;;;4933147;29;20043;-81
2023/04/06 07:34:50;;;;;;;17.02;15.55;;;;;;;;;;4951524;29;20083;-81
2023/04/06 07:37:18;;;;;;;6.82;4.35;;;;;;;;;;4932678;29;20135;-80
2023/04/06 07:39:47;;;;;;;6.28;5.43;;;;;;;;;;4951213;29;20130;-80
2023/04/06 07:42:15;;;;;;;8.38;5.43;;;;;;;;;;4951591;29;20043;-80
2023/04/06 07:44:43;;;;;;;15.73;9.98;;;;;;;;;;4939735;29;20059;-80
2023/04/06 07:47:11;;;;;;;17.55;15.75;;;;;;;;;;4939696;29;20039;-80
2023/04/06 07:49:39;;;;;;;13.77;6.95;;;;;;;;;;4946759;29;20047;-80
2023/04/06 07:52:07;;;;;;;8.20;7.40;;;;;;;;;;4937359;29;20425;-80
2023/04/06 07:54:34;;;;;;;4.40;3.95;;;;;;;;;;4936939;29;20103;-80
2023/04/06 07:57:01;;;;;;;11.65;10.25;;;;;;;;;;4935686;29;20114;-80
2023/04/06 07:59:29;;;;;;;10.48;9.57;;;;;;;;;;4953519;29;20119;-81
2023/04/06 08:01:57;;;;;;;15.65;9.20;;;;;;;;;;4953911;29;20101;-79
2023/04/06 08:04:24;;;;;;;3.78;3.42;;;;;;;;;;4952000;29;20088;-81
2023/04/06 08:06:52;;;;;;;7.15;6.38;;;;;;;;;;4954372;29;20106;-80
2023/04/06 08:09:19;;;;;;;7.55;3.78;;;;;;;;;;4948814;29;20143;-81
2023/04/06 08:11:48;;;;;;;7.97;7.38;;;;;;;;;;4952898;29;20058;-81
2023/04/06 08:14:16;;;;;;;5.90;4.30;;;;;;;;;;4939419;28;20081;-80
2023/04/06 08:16:43;;;;;;;5.75;4.18;;;;;;;;;;4962930;28;20083;-80
2023/04/06 08:19:11;;;;;;;4.30;3.67;;;;;;;;;;4961363;28;20113;-80
2023/04/06 08:21:39;;;;;;;6.18;5.75;;;;;;;;;;4963266;29;20063;-81
2023/04/06 08:24:07;;;;;;;4.15;3.72;;;;;;;;;;4954752;29;20545;-81
2023/04/06 08:26:35;;;;;;;4.47;3.65;;;;;;;;;;4948295;28;20536;-81
2023/04/06 08:29:03;;;;;;;11.43;10.38;;;;;;;;;;4948816;29;20039;-81
2023/04/06 08:31:31;;;;;;;4.05;3.65;;;;;;;;;;4953630;28;20047;-80
2023/04/06 08:33:59;;;;;;;5.80;4.32;;;;;;;;;;4948765;28;20428;-81
2023/04/06 08:36:29;;;;;;;6.18;4.88;;;;;;;;;;4931388;29;20124;-80
2023/04/06 08:38:56;;;;;;;10.13;9.18;;;;;;;;;;4928479;29;20440;-81
2023/04/06 08:41:24;;;;;;;4.03;3.53;;;;;;;;;;4946080;29;20047;-80
2023/04/06 08:44:02;;;;;;;6.75;6.15;;;;;;;;;;4944441;28;20043;-81
2023/04/06 08:46:30;;;;;;;32.58;29.08;;;;;;;;;;4946600;28;20052;-80
2023/04/06 08:48:58;;;;;;;5.78;3.63;;;;;;;;;;4951652;29;20519;-81
2023/04/06 08:51:27;;;;;;;5.18;3.40;;;;;;;;;;4948606;29;20055;-83
2023/04/06 08:53:55;;;;;;;6.68;5.57;;;;;;;;;;4945409;29;20075;-83
2023/04/06 08:56:23;;;;;;;219.38;204.27;;;;;;;;;;4947270;29;20417;-83
2023/04/06 08:58:51;;;;;;;37.53;34.83;;;;;;;;;;4954063;28;20485;-82
2023/04/06 09:01:23;;;;;;;6.75;3.75;;;;;;;;;;4947709;28;20046;-81
2023/04/06 09:03:51;;;;;;;43.13;40.28;;;;;;;;;;4942884;28;20043;-81
2023/04/06 09:06:19;;;;;;;7.50;6.78;;;;;;;;;;4948192;29;20035;-80
2023/04/06 09:08:47;;;;;;;9.93;9.05;;;;;;;;;;4938393;29;20071;-82
2023/04/06 09:11:15;;;;;;;162.77;151.75;;;;;;;;;;4948085;29;20074;-81
2023/04/06 09:13:49;;;;;;;4.93;3.85;;;;;;;;;;4948064;29;20606;-81
2023/04/06 09:16:18;;;;;;;13.15;11.95;;;;;;;;;;4945933;29;20067;-81
2023/04/06 09:18:46;;;;;;;5.63;4.15;;;;;;;;;;4947477;29;20490;-81
2023/04/06 09:21:16;;;;;;;294.20;275.13;;;;;;;;;;4948767;29;20050;-82
2023/04/06 09:23:44;;;;;;;7.28;6.78;;;;;;;;;;4947251;29;20043;-81
2023/04/06 09:26:15;;;;;;;8.20;7.35;;;;;;;;;;4932924;29;20047;-81
2023/04/06 09:28:50;;;;;;;13.35;12.32;;;;;;;;;;4942705;29;20055;-81
2023/04/06 09:31:33;;;;;;;194.25;181.45;;;;;;;;;;4956204;29;20039;-82
2023/04/06 09:34:01;;;;;;;73.07;65.93;;;;;;;;;;4951714;29;20078;-81
2023/04/06 09:36:31;;;;;;;138.93;130.18;;;;;;;;;;4949282;29;20162;-79
2023/04/06 09:39:00;;;;;;;8.68;8.15;;;;;;;;;;4950075;29;20055;-80
2023/04/06 09:41:37;;;;;;;34.67;32.22;;;;;;;;;;4930758;29;20062;-81
2023/04/06 09:44:04;;;;;;;12.43;11.63;;;;;;;;;;4933262;29;20061;-81
2023/04/06 09:46:34;;;;;;;96.47;89.40;;;;;;;;;;4943321;29;20099;-81
2023/04/06 09:49:21;;;;;;;23.00;21.38;;;;;;;;;;4956011;29;20525;-81
2023/04/06 09:51:59;;;;;;;43.45;40.58;;;;;;;;;;4940941;29;20137;-81
2023/04/06 09:54:29;;;;;;;124.80;115.35;;;;;;;;;;4945490;28;20062;-82
2023/04/06 09:57:20;;;;;;;101.45;95.07;;;;;;;;;;4926845;29;20079;-81
2023/04/06 10:00:03;;;;;;;30.40;28.45;;;;;;;;;;4946395;29;20492;-81
2023/04/06 10:02:50;;;;;;;55.63;51.92;;;;;;;;;;4945025;29;20390;-81
2023/04/06 10:05:27;;;;;;;275.65;258.30;;;;;;;;;;4947236;29;20529;-81
2023/04/06 10:07:58;;;;;;;63.38;59.28;;;;;;;;;;4951893;29;20561;-82
2023/04/06 10:10:30;;;;;;;19.17;18.00;;;;;;;;;;4950199;29;20098;-82
2023/04/06 10:12:59;;;;;;;268.92;250.70;;;;;;;;;;4949833;29;20083;-81
2023/04/06 10:15:28;;;;;;;171.30;159.80;;;;;;;;;;4949160;29;20520;-80
2023/04/06 10:17:55;;;;;;;53.03;49.35;;;;;;;;;;4950919;29;20102;-81
2023/04/06 10:20:39;;;;;;;122.97;114.43;;;;;;;;;;4950057;29;20050;-81
2023/04/06 10:23:09;;;;;;;162.32;151.95;;;;;;;;;;4929978;29;20059;-81
2023/04/06 10:25:37;;;;;;;37.63;35.28;;;;;;;;;;4955790;29;20323;-79
2023/04/06 10:28:09;;;;;;;92.60;86.32;;;;;;;;;;4952448;29;20043;-79
2023/04/06 10:30:43;;;;;;;297.23;273.95;;;;;;;;;;4950343;29;20588;-81
2023/04/06 10:33:17;;;;;;;375.83;342.83;;;;;;;;;;4951904;29;20069;-81
2023/04/06 10:35:45;;;;;;;300.65;279.52;;;;;;;;;;4954051;29;20035;-81
2023/04/06 10:38:14;;;;;;;75.85;71.28;;;;;;;;;;4951289;29;20066;-82
2023/04/06 10:40:42;;;;;;;139.98;130.30;;;;;;;;;;4947590;29;20047;-81
2023/04/06 10:43:14;;;;;;;82.05;77.13;;;;;;;;;;4931390;29;20114;-82
2023/04/06 10:45:42;;;;;;;293.83;272.70;;;;;;;;;;4945429;29;20393;-80
2023/04/06 10:48:17;;;;;;;122.95;114.85;;;;;;;;;;4944618;29;21411;-82
2023/04/06 10:50:47;;;;;;;146.35;136.57;;;;;;;;;;4944920;29;20058;-81
2023/04/06 10:53:27;;;;;;;269.05;250.52;;;;;;;;;;4946634;29;20509;-82
2023/04/06 10:55:56;;;;;;;224.65;208.50;;;;;;;;;;4942129;29;20047;-82
2023/04/06 10:58:27;;;;;;;44.92;42.03;;;;;;;;;;4944013;29;20047;-82
2023/04/06 11:00:55;;;;;;;39.85;37.33;;;;;;;;;;4940766;29;20074;-82
2023/04/06 11:03:23;;;;;;;109.30;101.20;;;;;;;;;;4943787;28;20043;-82
2023/04/06 11:05:51;;;;;;;50.85;47.17;;;;;;;;;;4947703;29;20043;-80
2023/04/06 11:08:32;;;;;;;45.05;41.90;;;;;;;;;;4959403;29;20115;-80
2023/04/06 11:11:09;;;;;;;53.90;50.40;;;;;;;;;;4945288;29;20055;-82
2023/04/06 11:13:44;;;;;;;40.65;37.45;;;;;;;;;;4945588;28;20055;-82
2023/04/06 11:16:16;;;;;;;46.45;42.95;;;;;;;;;;4957371;28;20043;-81
2023/04/06 11:18:57;;;;;;;15.20;14.10;;;;;;;;;;4966502;28;20047;-80
2023/04/06 11:21:34;;;;;;;145.23;135.07;;;;;;;;;;4964240;28;20053;-82
2023/04/06 11:24:12;;;;;;;388.73;359.48;;;;;;;;;;4949468;28;20043;-80
2023/04/06 11:26:48;;;;;;;41.55;38.83;;;;;;;;;;4944800;29;20054;-82
2023/04/06 11:29:16;;;;;;;435.42;407.58;;;;;;;;;;4950950;29;20036;-82
2023/04/06 11:31:48;;;;;;;318.42;296.55;;;;;;;;;;4931133;29;20130;-82
2023/04/06 11:34:19;;;;;;;312.75;290.98;;;;;;;;;;4953292;29;20517;-81
2023/04/06 11:36:48;;;;;;;303.70;280.45;;;;;;;;;;4934367;29;20063;-81
2023/04/06 11:39:20;;;;;;;376.92;346.80;;;;;;;;;;4934355;29;20051;-81
2023/04/06 11:41:48;;;;;;;26.45;24.60;;;;;;;;;;4948721;29;20506;-82
2023/04/06 11:44:16;;;;;;;191.68;179.20;;;;;;;;;;4952515;29;20901;-80
2023/04/06 11:46:52;;;;;;;25.13;23.42;;;;;;;;;;4946590;29;20078;-82
2023/04/06 11:49:19;;;;;;;101.80;94.80;;;;;;;;;;4955203;28;20110;-83
2023/04/06 11:51:46;;;;;;;29.52;27.63;;;;;;;;;;4948292;29;20488;-81
2023/04/06 11:54:14;;;;;;;26.60;24.95;;;;;;;;;;4942049;29;20040;-82
2023/04/06 11:56:41;;;;;;;103.45;96.13;;;;;;;;;;4930594;29;20051;-81
2023/04/06 11:59:10;;;;;;;41.60;38.55;;;;;;;;;;4947708;29;20506;-81
2023/04/06 12:01:45;;;;;;;207.65;193.65;;;;;;;;;;4948648;29;20556;-81
2023/04/06 12:04:13;;;;;;;55.13;51.67;;;;;;;;;;4949521;29;20048;-80
2023/04/06 12:06:41;;;;;;;70.72;65.95;;;;;;;;;;4936003;29;20050;-81
2023/04/06 12:09:08;;;;;;;36.50;33.80;;;;;;;;;;4949900;29;20047;-80
2023/04/06 12:11:36;;;;;;;257.70;239.82;;;;;;;;;;4949920;29;20074;-79
2023/04/06 12:14:04;;;;;;;119.90;111.70;;;;;;;;;;4947487;29;20054;-81
2023/04/06 12:16:32;;;;;;;30.13;28.25;;;;;;;;;;4947278;28;20047;-81
2023/04/06 12:18:59;;;;;;;144.23;134.75;;;;;;;;;;4951690;29;20079;-81
2023/04/06 12:21:28;;;;;;;214.52;199.48;;;;;;;;;;4950830;29;20055;-80
2023/04/06 12:23:55;;;;;;;316.73;295.10;;;;;;;;;;4956950;29;20305;-78
2023/04/06 12:26:23;;;;;;;106.10;99.85;;;;;;;;;;4966882;29;20058;-81
2023/04/06 12:28:50;;;;;;;50.60;47.40;;;;;;;;;;4949620;29;20513;-80
2023/04/06 12:31:18;;;;;;;42.35;39.65;;;;;;;;;;5026775;23;20443;-78
2023/04/06 12:33:53;;;;;;;98.15;91.95;;;;;;;;;;4969218;28;20086;-78
2023/04/06 12:36:23;;;;;;;34.20;32.13;;;;;;;;;;4963689;28;20051;-77
2023/04/06 12:38:53;;;;;;;223.43;208.30;;;;;;;;;;4968777;28;20101;-76
2023/04/06 12:41:23;;;;;;;91.40;86.07;;;;;;;;;;4964306;28;20078;-77
2023/04/06 12:43:51;;;;;;;208.10;193.80;;;;;;;;;;4945824;28;20066;-76
2023/04/06 12:46:18;;;;;;;333.65;311.80;;;;;;;;;;4965529;28;20508;-77
2023/04/06 12:48:46;;;;;;;52.38;49.28;;;;;;;;;;4964053;28;20046;-77
2023/04/06 12:51:14;;;;;;;277.67;254.73;;;;;;;;;;4967085;28;20034;-77
2023/04/06 12:53:42;;;;;;;360.77;334.23;;;;;;;;;;4969532;28;20074;-77
2023/04/06 12:56:13;;;;;;;329.83;307.38;;;;;;;;;;4966816;28;20527;-78
2023/04/06 12:58:41;;;;;;;175.18;163.93;;;;;;;;;;4967714;28;20082;-77
2023/04/06 13:01:11;;;;;;;197.68;184.57;;;;;;;;;;4966859;28;20055;-77
2023/04/06 13:03:39;;;;;;;37.67;35.33;;;;;;;;;;4970637;28;20062;-80
2023/04/06 13:06:10;;;;;;;21.65;20.15;;;;;;;;;;4961701;28;20141;-80
2023/04/06 13:08:38;;;;;;;19.85;18.55;;;;;;;;;;4964238;28;20055;-79
2023/04/06 13:11:09;;;;;;;28.98;26.83;;;;;;;;;;4964460;28;20047;-82
2023/04/06 13:13:37;;;;;;;99.55;93.05;;;;;;;;;;4964386;28;20053;-77
2023/04/06 13:16:06;;;;;;;86.55;81.18;;;;;;;;;;4966961;28;20125;-78
2023/04/06 13:18:36;;;;;;;243.10;226.68;;;;;;;;;;4967296;28;20271;-76
2023/04/06 13:21:04;;;;;;;172.45;160.88;;;;;;;;;;4964994;28;20050;-78
2023/04/06 13:23:32;;;;;;;12.73;11.80;;;;;;;;;;4965007;28;20420;-78
2023/04/06 13:26:03;;;;;;;87.07;81.57;;;;;;;;;;4963729;28;20074;-77
2023/04/06 13:28:31;;;;;;;91.05;85.05;;;;;;;;;;4963780;28;20420;-77
2023/04/06 13:30:59;;;;;;;177.25;165.38;;;;;;;;;;4966641;28;20408;-78
2023/04/06 13:33:27;;;;;;;252.57;233.15;;;;;;;;;;4964477;28;20054;-78
2023/04/06 13:35:54;;;;;;;53.58;50.03;;;;;;;;;;4966705;28;20137;-81
2023/04/06 13:38:23;;;;;;;105.20;97.57;;;;;;;;;;4965364;28;20517;-78
2023/04/06 13:40:51;;;;;;;25.05;23.15;;;;;;;;;;4965862;28;20559;-80
2023/04/06 13:43:20;;;;;;;199.82;185.77;;;;;;;;;;4965483;28;20077;-78
2023/04/06 13:45:51;;;;;;;94.65;88.35;;;;;;;;;;4967135;28;20051;-80
2023/04/06 13:48:20;;;;;;;56.63;53.08;;;;;;;;;;4967490;28;20053;-79
2023/04/06 13:50:47;;;;;;;47.85;44.95;;;;;;;;;;4964405;28;20765;-78
2023/04/06 13:53:15;;;;;;;476.13;440.63;;;;;;;;;;4964909;28;20512;-79
2023/04/06 13:55:42;;;;;;;449.20;418.38;;;;;;;;;;4967393;28;20057;-79
2023/04/06 13:58:10;;;;;;;310.90;289.23;;;;;;;;;;4967642;28;20061;-78
2023/04/06 14:00:37;;;;;;;98.13;92.35;;;;;;;;;;4966888;28;20059;-79
2023/04/06 14:03:06;;;;;;;238.20;222.32;;;;;;;;;;4967758;28;20446;-78
2023/04/06 14:05:34;;;;;;;75.60;70.65;;;;;;;;;;4967675;28;20051;-78
2023/04/06 14:08:02;;;;;;;234.15;218.38;;;;;;;;;;4967946;28;20054;-80
2023/04/06 14:10:29;;;;;;;67.55;63.00;;;;;;;;;;4967821;28;20118;-78
2023/04/06 14:12:58;;;;;;;36.35;34.20;;;;;;;;;;4967851;28;20405;-78
2023/04/06 14:15:26;;;;;;;134.05;123.82;;;;;;;;;;4967331;28;20051;-77
2023/04/06 14:17:53;;;;;;;48.38;45.22;;;;;;;;;;4968227;28;20055;-78
2023/04/06 14:20:20;;;;;;;86.30;80.38;;;;;;;;;;4968047;28;20468;-78
2023/04/06 14:22:49;;;;;;;99.05;92.43;;;;;;;;;;4967635;28;20500;-78
2023/04/06 14:25:16;;;;;;;169.50;159.23;;;;;;;;;;4967061;28;20046;-81
2023/04/06 14:27:44;;;;;;;76.97;71.57;;;;;;;;;;4967707;28;20051;-79
2023/04/06 14:30:12;;;;;;;144.68;134.88;;;;;;;;;;4949868;28;20049;-80
2023/04/06 14:32:40;;;;;;;303.80;280.80;;;;;;;;;;4967369;28;20424;-79
2023/04/06 14:35:08;;;;;;;277.52;258.67;;;;;;;;;;4967749;28;20563;-79
2023/04/06 14:37:35;;;;;;;182.05;168.93;;;;;;;;;;4967358;28;20591;-78
2023/04/06 14:40:04;;;;;;;197.50;182.82;;;;;;;;;;4967491;28;20054;-78
2023/04/06 14:42:31;;;;;;;279.30;261.00;;;;;;;;;;4967232;28;20043;-81
2023/04/06 14:44:58;;;;;;;158.20;148.25;;;;;;;;;;4966760;28;20050;-81
2023/04/06 14:47:26;;;;;;;92.75;86.78;;;;;;;;;;4967508;28;20086;-78